Terminal Aerodrome Forecast
Issued by NWS

Home | Current Version | Previous Version | Text Only | Print | Product List | Glossary On
Versions: 1 2 3 4 5 6 7 8 9 10 11 12 13
000
FTUS42 KTAE 201100
TAFDHN
TAF
KDHN 201132Z 2012/2112 05007KT 6SM -RA SCT015 BKN025 OVC050
     FM201700 04006KT P6SM SCT025 OVC070
     FM210400 04004KT P6SM OVC020
     FM211000 05007KT P6SM OVC008=

USA.gov is the U.S. government's official web portal to all federal, state and local government web resources and services.